Aérodrome :
LOGIN :

S'inscrire | Disclaimer

   EN    FR    IT 

 










Légende :    VFR   VFR Marginal   IFR   IFR Intensif   IFR Très Intensif
Visi : 
Plafond : 
>= 8 km
>= 3000ft
5 à 8 km
1000 à 3000 ft
1500m à 5 km
500 à 1000 ft
800 à 1500m
200 à 500 ft
< 800m
< 200 ft
Symboles :   Orages  Brouillard  Fortes neiges  Fortes précipitations  Vent > 20 kt
SIGMETs :   Divers  Orages  Givrage  Turbulence  Onde Orograph.  Cendres Volcan.







- Altitude de l'aérodrome : 876 ft
- Code IATA : MBX


LJMB - Maribor

DERNIER METAR :
  • 180230Z AUTO 13004KT 9999 SCT035/// BKN096/// 17/15 Q1017

METARs EXPIRÉS :
  • 180200Z AUTO VRB02KT 9999 FEW049/// 17/16 Q1017
  • 180130Z AUTO 00000KT 9999 SCT032/// BKN047/// BKN056/// 17/16 Q1016
  • 180100Z AUTO 02001KT 9999 OVC014/// 18/16 Q1016
  • 180030Z AUTO 06001KT 9999 OVC019/// 18/16 Q1016
  • 180000Z AUTO 01001KT 9999 OVC019/// 18/16 Q1016

TAF TAF LJMB
Valide du 18 à 03h jusqu'au 19 à 03h UTC


180200Z 1803/1903 03005KT 9999 FEW040 SCT070
PROB40
TEMPO 1803/1806 7000 -RA BKN033
TEMPO 1806/1903 BKN037
BECMG 1809/1811 19005KT
BECMG 1819/1821 35003KT
Pas de NOTAMs connus pour ce terrain.



MET'MAP, la Météo Aéronautique d'un coup d'oeil ! - Copyright ORBIFLY Décembre 2007 - Disclaimer

ORBIFLY MET'MAP TEAM :

Programmation & Développement : Alexandra Zaïnal
Conception & Développement : Baudouin d'Aumeries
Co-Programmation & Développement : Marc-Olivier Méhu
Soutien technique & logistique : Manuel Goepfert

Contact : metmap@orbifly.com




SOURCES & CREDITS :

   NOAA